createdAt,value
2023-04-15T00:00:57.000Z,421.6463317871094
2023-04-15T00:02:04.000Z,423.40234375
2023-04-15T00:03:07.000Z,423.9159851074219
2023-04-15T00:04:09.000Z,426.426513671875
2023-04-15T00:05:11.000Z,425.7133483886719
2023-04-15T00:06:14.000Z,424.5954895019531
2023-04-15T00:07:16.000Z,425.43133544921875
2023-04-15T00:08:18.000Z,423.7113342285156
2023-04-15T00:09:21.000Z,423.6650695800781
2023-04-15T00:10:23.000Z,424.3124084472656
2023-04-15T00:11:26.000Z,424.5451965332031
2023-04-15T00:12:28.000Z,427.21063232421875
2023-04-15T00:13:30.000Z,426.1296081542969
2023-04-15T00:14:32.000Z,421.67425537109375
2023-04-15T00:15:35.000Z,419.90411376953125
2023-04-15T00:16:37.000Z,420.8589172363281
2023-04-15T00:17:39.000Z,421.4696044921875
2023-04-15T00:18:42.000Z,421.6309509277344
2023-04-15T00:19:44.000Z,421.9884338378906
2023-04-15T00:20:47.000Z,423.18792724609375
2023-04-15T00:21:49.000Z,423.55108642578125
2023-04-15T00:22:51.000Z,423.8516845703125
2023-04-15T00:23:54.000Z,421.27484130859375
2023-04-15T00:24:56.000Z,422.33563232421875
2023-04-15T00:25:58.000Z,425.3719177246094
2023-04-15T00:27:01.000Z,423.6898193359375
2023-04-15T00:28:03.000Z,423.20379638671875
2023-04-15T00:29:06.000Z,423.2306213378906
2023-04-15T00:30:08.000Z,423.89532470703125
2023-04-15T00:31:10.000Z,425.3645324707031
2023-04-15T00:32:13.000Z,426.1774597167969
2023-04-15T00:33:15.000Z,426.9058532714844
2023-04-15T00:34:17.000Z,427.7737731933594
2023-04-15T00:35:20.000Z,429.3280334472656
2023-04-15T00:36:22.000Z,429.26617431640625
2023-04-15T00:37:24.000Z,428.7916259765625
2023-04-15T00:38:27.000Z,430.84259033203125
2023-04-15T00:39:29.000Z,431.5904235839844
2023-04-15T00:40:31.000Z,431.2110595703125
2023-04-15T00:41:34.000Z,428.53741455078125
2023-04-15T00:42:36.000Z,426.822265625
2023-04-15T00:43:39.000Z,428.61676025390625
2023-04-15T00:44:41.000Z,425.7365417480469
2023-04-15T00:45:43.000Z,424.2432556152344
2023-04-15T00:46:46.000Z,425.69219970703125
2023-04-15T00:47:48.000Z,425.4150085449219
2023-04-15T00:48:50.000Z,426.1588134765625
2023-04-15T00:49:53.000Z,427.79296875
2023-04-15T00:50:55.000Z,426.55877685546875
2023-04-15T00:51:58.000Z,424.64752197265625
2023-04-15T00:53:00.000Z,425.4920349121094
2023-04-15T00:54:03.000Z,423.4565734863281
2023-04-15T00:55:05.000Z,425.2365417480469
2023-04-15T00:56:07.000Z,423.5173645019531
2023-04-15T00:57:10.000Z,424.7362060546875
2023-04-15T00:58:12.000Z,424.51654052734375
2023-04-15T00:59:15.000Z,425.1380920410156
2023-04-15T01:00:17.000Z,425.116455078125
2023-04-15T01:01:20.000Z,424.3987121582031
2023-04-15T01:02:22.000Z,424.80743408203125
2023-04-15T01:03:24.000Z,427.7574462890625
2023-04-15T01:04:27.000Z,428.7626953125
2023-04-15T01:05:29.000Z,430.5713195800781
2023-04-15T01:06:32.000Z,430.1659240722656
2023-04-15T01:07:34.000Z,430.5011901855469
2023-04-15T01:08:36.000Z,429.3950500488281
2023-04-15T01:09:39.000Z,428.354736328125
2023-04-15T01:10:41.000Z,427.4986572265625
2023-04-15T01:11:44.000Z,430.47265625
2023-04-15T01:12:46.000Z,432.7254943847656
2023-04-15T01:13:49.000Z,430.8377685546875
2023-04-15T01:14:51.000Z,432.2877502441406
2023-04-15T01:15:53.000Z,433.4644470214844
2023-04-15T01:16:56.000Z,434.051025390625
2023-04-15T01:17:58.000Z,432.1889953613281
2023-04-15T01:19:01.000Z,430.8047180175781
2023-04-15T01:20:03.000Z,430.06817626953125
2023-04-15T01:21:06.000Z,429.8494873046875
2023-04-15T01:22:08.000Z,429.1007385253906
2023-04-15T01:23:11.000Z,429.04248046875
2023-04-15T01:24:13.000Z,430.32598876953125
2023-04-15T01:25:16.000Z,429.0340881347656
2023-04-15T01:26:18.000Z,428.8616027832031
2023-04-15T01:27:21.000Z,426.5419921875
2023-04-15T01:28:23.000Z,425.7581481933594
2023-04-15T01:29:25.000Z,425.0233459472656
2023-04-15T01:30:28.000Z,424.1683654785156
2023-04-15T01:31:30.000Z,425.4144287109375
2023-04-15T01:32:33.000Z,427.53125
2023-04-15T01:33:35.000Z,426.6681823730469
2023-04-15T01:34:37.000Z,428.8201599121094
2023-04-15T01:35:40.000Z,429.3358154296875
2023-04-15T01:36:42.000Z,428.6588439941406
2023-04-15T01:37:45.000Z,428.8808288574219
2023-04-15T01:38:47.000Z,427.5264892578125
2023-04-15T01:39:49.000Z,424.6436767578125
2023-04-15T01:40:52.000Z,424.31683349609375
2023-04-15T01:41:54.000Z,422.70245361328125
2023-04-15T01:42:57.000Z,424.6977233886719
2023-04-15T01:43:59.000Z,423.4623718261719
2023-04-15T01:45:01.000Z,422.1251525878906
2023-04-15T01:46:04.000Z,420.6012878417969
2023-04-15T01:47:06.000Z,421.4119567871094
2023-04-15T01:48:09.000Z,421.6409912109375
2023-04-15T01:49:11.000Z,423.3206481933594
2023-04-15T01:50:14.000Z,422.9371337890625
2023-04-15T01:51:17.000Z,422.82232666015625
2023-04-15T01:52:20.000Z,423.4975280761719
2023-04-15T01:53:22.000Z,422.0226745605469
2023-04-15T01:54:24.000Z,421.0438232421875
2023-04-15T01:55:27.000Z,423.30853271484375
2023-04-15T01:56:29.000Z,422.363525390625
2023-04-15T01:57:32.000Z,425.04632568359375
2023-04-15T01:58:34.000Z,426.14385986328125
2023-04-15T01:59:36.000Z,427.7420654296875
2023-04-15T02:00:39.000Z,425.15399169921875
2023-04-15T02:01:41.000Z,424.2503662109375
2023-04-15T02:02:44.000Z,423.0205993652344
2023-04-15T02:03:46.000Z,417.362060546875
2023-04-15T02:04:48.000Z,416.4290466308594
2023-04-15T02:05:51.000Z,418.16815185546875
2023-04-15T02:06:53.000Z,419.0972595214844
2023-04-15T02:07:55.000Z,421.6585693359375
2023-04-15T02:08:58.000Z,423.2418212890625
2023-04-15T02:10:00.000Z,425.8803405761719
2023-04-15T02:11:03.000Z,426.7995910644531
2023-04-15T02:12:05.000Z,427.5081787109375
2023-04-15T02:13:07.000Z,427.37957763671875
2023-04-15T02:14:10.000Z,425.8655090332031
2023-04-15T02:15:12.000Z,423.787353515625
2023-04-15T02:16:15.000Z,425.5746154785156
2023-04-15T02:17:17.000Z,426.3333435058594
2023-04-15T02:18:19.000Z,423.2793884277344
2023-04-15T02:19:22.000Z,424.1506652832031
2023-04-15T02:20:24.000Z,424.2804260253906
2023-04-15T02:21:27.000Z,425.6507873535156
2023-04-15T02:22:29.000Z,425.4793395996094
2023-04-15T02:23:32.000Z,423.5184020996094
2023-04-15T02:24:34.000Z,421.71160888671875
2023-04-15T02:25:36.000Z,422.36846923828125
2023-04-15T02:26:39.000Z,422.36553955078125
2023-04-15T02:27:41.000Z,422.75726318359375
2023-04-15T02:28:44.000Z,423.6015625
2023-04-15T02:29:46.000Z,423.493408203125
2023-04-15T02:30:49.000Z,421.68841552734375
2023-04-15T02:31:51.000Z,420.56988525390625
2023-04-15T02:32:53.000Z,421.9332275390625
2023-04-15T02:33:56.000Z,421.0377197265625
2023-04-15T02:34:58.000Z,420.7412414550781
2023-04-15T02:36:01.000Z,421.9465026855469
2023-04-15T02:37:03.000Z,424.3520812988281
2023-04-15T02:38:05.000Z,425.1016845703125
2023-04-15T02:39:08.000Z,426.4697570800781
2023-04-15T02:40:10.000Z,425.7983703613281
2023-04-15T02:41:13.000Z,425.28448486328125
2023-04-15T02:42:15.000Z,425.9212951660156
2023-04-15T02:43:17.000Z,427.83294677734375
2023-04-15T02:44:20.000Z,427.066650390625
2023-04-15T02:45:22.000Z,426.7847900390625
2023-04-15T02:46:25.000Z,426.8433837890625
2023-04-15T02:47:27.000Z,425.4803161621094
2023-04-15T02:48:29.000Z,421.95550537109375
2023-04-15T02:49:32.000Z,422.164794921875
2023-04-15T02:50:34.000Z,422.3554382324219
2023-04-15T02:51:36.000Z,423.2039489746094
2023-04-15T02:52:39.000Z,422.72381591796875
2023-04-15T02:53:41.000Z,422.4708557128906
2023-04-15T02:54:44.000Z,422.0686950683594
2023-04-15T02:55:46.000Z,422.8718566894531
2023-04-15T02:56:49.000Z,424.8112487792969
2023-04-15T02:57:51.000Z,424.4873962402344
2023-04-15T02:58:53.000Z,426.06170654296875
2023-04-15T02:59:56.000Z,425.23272705078125
2023-04-15T03:00:58.000Z,425.337646484375
2023-04-15T03:02:01.000Z,425.9483642578125
2023-04-15T03:03:03.000Z,428.652587890625
2023-04-15T03:04:05.000Z,431.65460205078125
2023-04-15T03:05:08.000Z,432.5078430175781
2023-04-15T03:06:10.000Z,433.1888732910156
2023-04-15T03:07:13.000Z,430.6516418457031
2023-04-15T03:08:15.000Z,429.5402526855469
2023-04-15T03:09:17.000Z,426.87506103515625
2023-04-15T03:10:20.000Z,426.4222717285156
2023-04-15T03:11:22.000Z,427.88116455078125
2023-04-15T03:12:25.000Z,428.88128662109375
2023-04-15T03:13:27.000Z,428.4591064453125
2023-04-15T03:14:30.000Z,425.7674255371094
2023-04-15T03:15:32.000Z,423.5811767578125
2023-04-15T03:16:34.000Z,422.2948913574219
2023-04-15T03:17:37.000Z,421.3150634765625
2023-04-15T03:18:39.000Z,418.7269287109375
2023-04-15T03:19:42.000Z,419.4317626953125
2023-04-15T03:20:44.000Z,420.8818664550781
2023-04-15T03:21:47.000Z,421.4678039550781
2023-04-15T03:22:49.000Z,423.0900573730469
2023-04-15T03:23:51.000Z,424.41436767578125
2023-04-15T03:24:54.000Z,426.1708984375
2023-04-15T03:25:56.000Z,425.0725402832031
2023-04-15T03:26:59.000Z,424.9924011230469
2023-04-15T03:28:01.000Z,424.1612548828125
2023-04-15T03:29:03.000Z,426.4190673828125
2023-04-15T03:30:06.000Z,428.8914489746094
2023-04-15T03:31:08.000Z,428.270263671875
2023-04-15T03:32:10.000Z,429.5513610839844
2023-04-15T03:33:13.000Z,431.1437072753906
2023-04-15T03:34:16.000Z,429.7887268066406
2023-04-15T03:35:19.000Z,427.7648010253906
2023-04-15T03:36:21.000Z,426.8988342285156
2023-04-15T03:37:24.000Z,429.7380676269531
2023-04-15T03:38:26.000Z,430.27081298828125
2023-04-15T03:39:28.000Z,430.69635009765625
2023-04-15T03:40:31.000Z,428.3897705078125
2023-04-15T03:41:33.000Z,428.5260925292969
2023-04-15T03:42:36.000Z,429.89208984375
2023-04-15T03:43:38.000Z,431.08123779296875
2023-04-15T03:44:40.000Z,432.4873962402344
2023-04-15T03:45:43.000Z,432.1443176269531
2023-04-15T03:46:45.000Z,433.1513977050781
2023-04-15T03:47:47.000Z,434.19854736328125
2023-04-15T03:48:50.000Z,432.8622131347656
2023-04-15T03:49:52.000Z,433.0982666015625
2023-04-15T03:50:55.000Z,433.1479797363281
2023-04-15T03:51:57.000Z,431.5164489746094
2023-04-15T03:52:59.000Z,432.46063232421875
2023-04-15T03:54:02.000Z,432.2300720214844
2023-04-15T03:55:04.000Z,429.7823791503906
2023-04-15T03:56:07.000Z,429.7192687988281
2023-04-15T03:57:09.000Z,431.0386962890625
2023-04-15T03:58:11.000Z,430.56573486328125
2023-04-15T03:59:14.000Z,429.3609924316406
2023-04-15T04:00:16.000Z,432.29217529296875
2023-04-15T04:01:18.000Z,429.72052001953125
2023-04-15T04:02:21.000Z,431.8862609863281
2023-04-15T04:03:23.000Z,429.24652099609375
2023-04-15T04:04:26.000Z,430.2919616699219
2023-04-15T04:05:28.000Z,431.4609069824219
2023-04-15T04:06:30.000Z,433.104736328125
2023-04-15T04:07:33.000Z,433.27001953125
2023-04-15T04:08:35.000Z,433.1793212890625
2023-04-15T04:09:38.000Z,432.357666015625
2023-04-15T04:10:40.000Z,429.9889831542969
2023-04-15T04:11:43.000Z,428.1917724609375
2023-04-15T04:12:45.000Z,427.30426025390625
2023-04-15T04:13:47.000Z,427.01556396484375
2023-04-15T04:14:50.000Z,427.0223388671875
2023-04-15T04:15:52.000Z,425.94207763671875
2023-04-15T04:16:55.000Z,427.0726013183594
2023-04-15T04:17:57.000Z,428.5063171386719
2023-04-15T04:18:59.000Z,429.72735595703125
2023-04-15T04:20:02.000Z,431.0720520019531
2023-04-15T04:21:04.000Z,432.02569580078125
2023-04-15T04:22:06.000Z,428.89984130859375
2023-04-15T04:23:09.000Z,427.4436340332031
2023-04-15T04:24:11.000Z,424.7439880371094
2023-04-15T04:25:14.000Z,424.96575927734375
2023-04-15T04:26:16.000Z,424.5076904296875
2023-04-15T04:27:18.000Z,426.1883239746094
2023-04-15T04:28:21.000Z,426.45233154296875
2023-04-15T04:29:23.000Z,427.2254943847656
2023-04-15T04:30:26.000Z,429.1679382324219
2023-04-15T04:31:28.000Z,429.7192687988281
2023-04-15T04:32:30.000Z,428.8412170410156
2023-04-15T04:33:33.000Z,429.055419921875
2023-04-15T04:34:35.000Z,428.91839599609375
2023-04-15T04:35:38.000Z,427.61627197265625
2023-04-15T04:36:40.000Z,426.6814270019531
2023-04-15T04:37:42.000Z,423.9573669433594
2023-04-15T04:38:45.000Z,426.5404968261719
2023-04-15T04:39:47.000Z,426.55523681640625
2023-04-15T04:40:50.000Z,427.13226318359375
2023-04-15T04:41:52.000Z,428.9759216308594
2023-04-15T04:42:55.000Z,429.24957275390625
2023-04-15T04:43:57.000Z,426.84564208984375
2023-04-15T04:45:00.000Z,427.10693359375
2023-04-15T04:46:02.000Z,426.2659912109375
2023-04-15T04:47:04.000Z,427.3365783691406
2023-04-15T04:48:07.000Z,427.1397399902344
2023-04-15T04:49:09.000Z,426.2132568359375
2023-04-15T04:50:12.000Z,424.6448059082031
2023-04-15T04:51:14.000Z,426.2242431640625
2023-04-15T04:52:16.000Z,428.9875793457031
2023-04-15T04:53:19.000Z,429.0133361816406
2023-04-15T04:54:21.000Z,428.9856262207031
2023-04-15T04:55:23.000Z,428.2607116699219
2023-04-15T04:56:26.000Z,428.0726013183594
2023-04-15T04:57:28.000Z,428.390380859375
2023-04-15T04:58:31.000Z,430.20050048828125
2023-04-15T04:59:33.000Z,430.3369140625
2023-04-15T05:00:35.000Z,430.5040588378906
2023-04-15T05:01:38.000Z,431.5877685546875
2023-04-15T05:02:40.000Z,433.0480651855469
2023-04-15T05:03:42.000Z,433.52252197265625
2023-04-15T05:04:45.000Z,430.345458984375
2023-04-15T05:05:47.000Z,427.0165710449219
2023-04-15T05:06:50.000Z,426.70782470703125
2023-04-15T05:07:52.000Z,426.2626953125
2023-04-15T05:08:54.000Z,428.9123840332031
2023-04-15T05:09:57.000Z,428.8945617675781
2023-04-15T05:10:59.000Z,427.6320495605469
2023-04-15T05:12:02.000Z,427.6838684082031
2023-04-15T05:13:04.000Z,430.6067810058594
2023-04-15T05:14:06.000Z,430.7362365722656
2023-04-15T05:15:09.000Z,427.2944641113281
2023-04-15T05:16:11.000Z,429.4850769042969
2023-04-15T05:17:14.000Z,432.4765930175781
2023-04-15T05:18:16.000Z,433.7217712402344
2023-04-15T05:19:19.000Z,432.4493103027344
2023-04-15T05:20:21.000Z,432.10357666015625
2023-04-15T05:21:24.000Z,430.9635009765625
2023-04-15T05:22:26.000Z,431.3523254394531
2023-04-15T05:23:29.000Z,432.0098876953125
2023-04-15T05:24:31.000Z,431.7383728027344
2023-04-15T05:25:33.000Z,431.9981689453125
2023-04-15T05:26:36.000Z,432.3123474121094
2023-04-15T05:27:38.000Z,433.0765686035156
2023-04-15T05:28:41.000Z,433.58001708984375
2023-04-15T05:29:43.000Z,432.7622375488281
2023-04-15T05:30:46.000Z,431.1297302246094
2023-04-15T05:31:48.000Z,430.9947814941406
2023-04-15T05:32:51.000Z,433.2351989746094
2023-04-15T05:33:53.000Z,432.1723937988281
2023-04-15T05:34:56.000Z,433.68084716796875
2023-04-15T05:35:58.000Z,436.1463928222656
2023-04-15T05:37:00.000Z,437.054931640625
2023-04-15T05:38:03.000Z,438.46856689453125
2023-04-15T05:39:05.000Z,436.6354064941406
2023-04-15T05:40:08.000Z,432.98162841796875
2023-04-15T05:41:10.000Z,433.6619873046875
2023-04-15T05:42:12.000Z,432.9366149902344
2023-04-15T05:43:15.000Z,430.905517578125
2023-04-15T05:44:17.000Z,429.6572265625
2023-04-15T05:45:19.000Z,431.41632080078125
2023-04-15T05:46:22.000Z,429.6883544921875
2023-04-15T05:47:24.000Z,429.8876953125
2023-04-15T05:48:27.000Z,429.8429260253906
2023-04-15T05:49:29.000Z,430.2008361816406
2023-04-15T05:50:31.000Z,430.4183044433594
2023-04-15T05:51:34.000Z,431.8753967285156
2023-04-15T05:52:36.000Z,430.1976318359375
2023-04-15T05:53:39.000Z,430.6070251464844
2023-04-15T05:54:41.000Z,429.79583740234375
2023-04-15T05:55:44.000Z,427.9067077636719
2023-04-15T05:56:46.000Z,426.4476013183594
2023-04-15T05:57:48.000Z,427.7069091796875
2023-04-15T05:58:51.000Z,429.1351318359375
2023-04-15T05:59:53.000Z,430.30169677734375
2023-04-15T06:00:56.000Z,430.2238464355469
2023-04-15T06:01:58.000Z,429.8832092285156
2023-04-15T06:03:00.000Z,430.7754821777344
2023-04-15T06:04:04.000Z,428.7194519042969
2023-04-15T06:05:06.000Z,428.4866027832031
2023-04-15T06:06:09.000Z,429.04718017578125
2023-04-15T06:07:11.000Z,428.1217956542969
2023-04-15T06:08:14.000Z,429.3320617675781
2023-04-15T06:09:16.000Z,428.1636657714844
2023-04-15T06:10:18.000Z,430.8319091796875
2023-04-15T06:11:21.000Z,430.51910400390625
2023-04-15T06:12:23.000Z,431.6502380371094
2023-04-15T06:13:26.000Z,432.1536865234375
2023-04-15T06:14:28.000Z,430.09515380859375
2023-04-15T06:15:30.000Z,430.8084411621094
2023-04-15T06:16:33.000Z,429.47296142578125
2023-04-15T06:17:35.000Z,431.2564392089844
2023-04-15T06:18:38.000Z,432.9665222167969
2023-04-15T06:19:40.000Z,432.6590270996094
2023-04-15T06:20:43.000Z,431.5498352050781
2023-04-15T06:21:45.000Z,431.2845153808594
2023-04-15T06:22:48.000Z,433.58740234375
2023-04-15T06:23:50.000Z,436.0320739746094
2023-04-15T06:24:52.000Z,436.8140563964844
2023-04-15T06:25:55.000Z,437.74322509765625
2023-04-15T06:26:57.000Z,435.0040588378906
2023-04-15T06:28:00.000Z,432.51885986328125
2023-04-15T06:29:02.000Z,433.8450622558594
2023-04-15T06:30:05.000Z,435.2837829589844
2023-04-15T06:31:07.000Z,434.21466064453125
2023-04-15T06:32:09.000Z,434.0850830078125
2023-04-15T06:33:12.000Z,433.455322265625
2023-04-15T06:34:14.000Z,431.98114013671875
2023-04-15T06:35:17.000Z,432.7010498046875
2023-04-15T06:36:19.000Z,434.05560302734375
2023-04-15T06:37:22.000Z,435.8958740234375
2023-04-15T06:38:24.000Z,436.3191833496094
2023-04-15T06:39:26.000Z,435.176025390625
2023-04-15T06:40:29.000Z,438.2892761230469
2023-04-15T06:41:31.000Z,436.40081787109375
2023-04-15T06:42:34.000Z,435.3751220703125
2023-04-15T06:43:36.000Z,435.33526611328125
2023-04-15T06:44:39.000Z,433.0051574707031
2023-04-15T06:45:41.000Z,432.29388427734375
2023-04-15T06:46:44.000Z,432.7407531738281
2023-04-15T06:47:46.000Z,432.60736083984375
2023-04-15T06:48:48.000Z,429.8969421386719
2023-04-15T06:49:51.000Z,431.14373779296875
2023-04-15T06:50:53.000Z,431.119873046875
2023-04-15T06:51:56.000Z,430.14080810546875
2023-04-15T06:52:58.000Z,431.8992004394531
2023-04-15T06:54:01.000Z,433.09259033203125
2023-04-15T06:55:03.000Z,432.8062438964844
2023-04-15T06:56:06.000Z,432.8071594238281
2023-04-15T06:57:08.000Z,432.1953430175781
2023-04-15T06:58:10.000Z,432.5987243652344
2023-04-15T06:59:13.000Z,430.8083801269531
2023-04-15T07:00:15.000Z,430.66375732421875
2023-04-15T07:01:18.000Z,434.1092834472656
2023-04-15T07:02:20.000Z,435.3558044433594
2023-04-15T07:03:23.000Z,434.6405334472656
2023-04-15T07:04:25.000Z,433.3560791015625
2023-04-15T07:05:28.000Z,434.5451965332031
2023-04-15T07:06:30.000Z,434.3528137207031
2023-04-15T07:07:32.000Z,435.668212890625
2023-04-15T07:08:35.000Z,434.091552734375
2023-04-15T07:09:37.000Z,433.72509765625
2023-04-15T07:10:39.000Z,433.2566833496094
2023-04-15T07:11:42.000Z,429.8153076171875
2023-04-15T07:12:45.000Z,431.1802978515625
2023-04-15T07:13:47.000Z,430.24981689453125
2023-04-15T07:14:49.000Z,427.8890380859375
2023-04-15T07:15:52.000Z,427.7423400878906
2023-04-15T07:16:54.000Z,430.5107116699219
2023-04-15T07:17:57.000Z,431.4656066894531
2023-04-15T07:18:59.000Z,433.84271240234375
2023-04-15T07:20:02.000Z,434.29681396484375
2023-04-15T07:21:04.000Z,436.3708190917969
2023-04-15T07:22:06.000Z,436.27691650390625
2023-04-15T07:23:09.000Z,436.1634521484375
2023-04-15T07:24:12.000Z,435.591552734375
2023-04-15T07:25:14.000Z,436.7208251953125
2023-04-15T07:26:16.000Z,434.048583984375
2023-04-15T07:27:19.000Z,434.9117736816406
2023-04-15T07:28:21.000Z,434.9263610839844
2023-04-15T07:29:24.000Z,435.6768493652344
2023-04-15T07:30:26.000Z,435.7923278808594
2023-04-15T07:31:28.000Z,436.94903564453125
2023-04-15T07:32:31.000Z,438.60107421875
2023-04-15T07:33:33.000Z,437.5677185058594
2023-04-15T07:34:36.000Z,438.0563049316406
2023-04-15T07:35:38.000Z,435.53857421875
2023-04-15T07:36:40.000Z,433.5703430175781
2023-04-15T07:37:43.000Z,432.5125732421875
2023-04-15T07:38:45.000Z,430.061279296875
2023-04-15T07:39:48.000Z,431.110595703125
2023-04-15T07:40:50.000Z,431.5798034667969
2023-04-15T07:41:53.000Z,430.8562927246094
2023-04-15T07:42:55.000Z,431.8354187011719
2023-04-15T07:43:57.000Z,433.4087829589844
2023-04-15T07:45:00.000Z,435.1238098144531
2023-04-15T07:46:02.000Z,433.96527099609375
2023-04-15T07:47:05.000Z,434.5422058105469
2023-04-15T07:48:07.000Z,434.2998352050781
2023-04-15T07:49:09.000Z,431.5694885253906
2023-04-15T07:50:12.000Z,431.9806823730469
2023-04-15T07:51:14.000Z,431.58905029296875
2023-04-15T07:52:17.000Z,433.13909912109375
2023-04-15T07:53:19.000Z,432.6600646972656
2023-04-15T07:54:21.000Z,430.90313720703125
2023-04-15T07:55:24.000Z,429.7392272949219
2023-04-15T07:56:26.000Z,428.8414001464844
2023-04-15T07:57:29.000Z,426.7484130859375
2023-04-15T07:58:31.000Z,429.7514343261719
2023-04-15T07:59:34.000Z,433.6292724609375
2023-04-15T08:00:36.000Z,430.87139892578125
2023-04-15T08:01:38.000Z,433.4073791503906
2023-04-15T08:02:41.000Z,434.2665710449219
2023-04-15T08:03:43.000Z,437.10491943359375
2023-04-15T08:04:46.000Z,435.70233154296875
2023-04-15T08:05:48.000Z,435.78057861328125
2023-04-15T08:06:51.000Z,435.958740234375
2023-04-15T08:07:53.000Z,436.7655944824219
2023-04-15T08:08:55.000Z,434.8494567871094
2023-04-15T08:09:58.000Z,435.77734375
2023-04-15T08:11:01.000Z,434.0574645996094
2023-04-15T08:12:03.000Z,434.18072509765625
2023-04-15T08:13:05.000Z,434.5611572265625
2023-04-15T08:14:08.000Z,435.18634033203125
2023-04-15T08:15:10.000Z,433.6976013183594
2023-04-15T08:16:13.000Z,432.6104736328125
2023-04-15T08:17:15.000Z,431.5145568847656
2023-04-15T08:18:18.000Z,430.7126159667969
2023-04-15T08:19:20.000Z,432.0306091308594
2023-04-15T08:20:22.000Z,434.2835998535156
2023-04-15T08:21:25.000Z,437.50628662109375
2023-04-15T08:22:27.000Z,435.3507385253906
2023-04-15T08:23:30.000Z,435.0546569824219
2023-04-15T08:24:32.000Z,433.22955322265625
2023-04-15T08:25:34.000Z,433.96868896484375
2023-04-15T08:26:37.000Z,435.36810302734375
2023-04-15T08:27:39.000Z,433.6822509765625
2023-04-15T08:28:42.000Z,434.3006286621094
2023-04-15T08:29:44.000Z,435.1218566894531
2023-04-15T08:30:46.000Z,435.7712707519531
2023-04-15T08:31:49.000Z,438.20379638671875
2023-04-15T08:32:51.000Z,440.0001525878906
2023-04-15T08:33:54.000Z,440.54345703125
2023-04-15T08:34:56.000Z,440.76715087890625
2023-04-15T08:35:58.000Z,439.72601318359375
2023-04-15T08:37:01.000Z,438.8155517578125
2023-04-15T08:38:03.000Z,436.0430908203125
2023-04-15T08:39:06.000Z,433.4521484375
2023-04-15T08:40:08.000Z,430.66668701171875
2023-04-15T08:41:11.000Z,431.6667785644531
2023-04-15T08:42:13.000Z,430.7372131347656
2023-04-15T08:43:15.000Z,428.8133850097656
2023-04-15T08:44:18.000Z,426.48956298828125
2023-04-15T08:45:20.000Z,425.5027160644531
2023-04-15T08:46:23.000Z,426.34527587890625
2023-04-15T08:47:25.000Z,427.6982727050781
2023-04-15T08:48:28.000Z,428.77960205078125
2023-04-15T08:49:30.000Z,429.6759033203125
2023-04-15T08:50:32.000Z,433.43145751953125
2023-04-15T08:51:40.000Z,436.66131591796875
2023-04-15T08:52:42.000Z,437.29693603515625
2023-04-15T08:53:50.000Z,433.9585266113281
2023-04-15T08:54:52.000Z,434.9150085449219
2023-04-15T08:55:55.000Z,435.93548583984375
2023-04-15T08:56:57.000Z,431.81011962890625
2023-04-15T08:58:00.000Z,433.4532165527344
2023-04-15T08:59:02.000Z,434.7673645019531
2023-04-15T09:00:04.000Z,435.2686462402344
2023-04-15T09:01:07.000Z,432.6152038574219
2023-04-15T09:02:09.000Z,433.36224365234375
2023-04-15T09:03:17.000Z,433.5151062011719
2023-04-15T09:04:19.000Z,435.09991455078125
2023-04-15T09:05:22.000Z,437.30560302734375
2023-04-15T09:06:24.000Z,436.5464782714844
2023-04-15T09:07:27.000Z,435.4718322753906
2023-04-15T09:08:29.000Z,436.12322998046875
2023-04-15T09:09:32.000Z,432.5281982421875
2023-04-15T09:10:34.000Z,430.4686584472656
2023-04-15T09:11:41.000Z,430.8573913574219
2023-04-15T09:12:44.000Z,431.32708740234375
2023-04-15T09:13:46.000Z,431.3702087402344
2023-04-15T09:14:49.000Z,431.1593017578125
2023-04-15T09:15:51.000Z,433.2557373046875
2023-04-15T09:16:54.000Z,434.914794921875
2023-04-15T09:17:56.000Z,431.5814208984375
2023-04-15T09:18:59.000Z,432.27008056640625
2023-04-15T09:20:01.000Z,429.5188903808594
2023-04-15T09:21:04.000Z,429.5604553222656
2023-04-15T09:22:06.000Z,431.8938293457031
2023-04-15T09:23:09.000Z,432.54095458984375
2023-04-15T09:24:11.000Z,431.7685241699219
2023-04-15T09:25:14.000Z,434.75543212890625
2023-04-15T09:26:16.000Z,435.2022399902344
2023-04-15T09:27:19.000Z,432.106201171875
2023-04-15T09:28:21.000Z,429.4880676269531
2023-04-15T09:29:24.000Z,429.7569580078125
2023-04-15T09:30:26.000Z,430.5684814453125
2023-04-15T09:31:28.000Z,433.5826416015625
2023-04-15T09:32:30.000Z,434.4676818847656
2023-04-15T09:33:33.000Z,437.7641906738281
2023-04-15T09:34:35.000Z,434.8407287597656
2023-04-15T09:35:38.000Z,429.4361877441406
2023-04-15T09:36:40.000Z,430.00042724609375
2023-04-15T09:37:43.000Z,433.4929504394531
2023-04-15T09:38:45.000Z,435.70880126953125
2023-04-15T09:39:47.000Z,437.0357971191406